createdAt,value
2022-09-24T00:08:52.805Z,11.20
2022-09-24T00:28:52.606Z,11.70
2022-09-24T00:48:52.288Z,14.10
2022-09-24T01:08:51.969Z,14.80
2022-09-24T01:28:51.683Z,17.50
2022-09-24T01:48:51.387Z,15.20
2022-09-24T02:08:51.131Z,20.90
2022-09-24T02:28:50.810Z,27.50
2022-09-24T02:48:50.526Z,32.20
2022-09-24T03:08:50.234Z,33.30
2022-09-24T03:28:49.970Z,45.20
2022-09-24T03:48:49.866Z,38.60
2022-09-24T04:08:49.390Z,35.80
2022-09-24T04:28:49.116Z,46.20
2022-09-24T04:48:48.877Z,36.30
2022-09-24T05:08:48.600Z,32.30
2022-09-24T05:28:48.254Z,26.20
2022-09-24T05:48:47.952Z,35.50
2022-09-24T06:08:47.708Z,25.80
2022-09-24T06:28:47.396Z,32.90
2022-09-24T06:48:47.249Z,31.30
2022-09-24T07:08:46.981Z,32.20
2022-09-24T07:28:46.674Z,38.30
2022-09-24T07:48:46.379Z,37.20
2022-09-24T08:08:46.054Z,30.10
2022-09-24T08:28:45.794Z,39.10
2022-09-24T08:48:45.551Z,35.30
2022-09-24T09:09:05.756Z,39.30
2022-09-24T09:28:45.181Z,30.60
2022-09-24T09:48:44.766Z,30.20
2022-09-24T10:08:44.449Z,33.40
2022-09-24T10:28:44.205Z,39.50
2022-09-24T10:48:43.916Z,33.90
2022-09-24T11:08:43.615Z,32.90
2022-09-24T11:28:43.284Z,32.90
2022-09-24T11:48:42.999Z,27.10
2022-09-24T12:08:42.719Z,40.50
2022-09-24T12:28:42.440Z,23.10
2022-09-24T12:48:42.199Z,28.00
2022-09-24T13:08:41.891Z,25.30
2022-09-24T13:28:46.284Z,34.20
2022-09-24T13:48:41.347Z,34.80
2022-09-24T14:08:41.076Z,37.00
2022-09-24T14:28:40.848Z,35.10
2022-09-24T14:48:40.497Z,25.10
2022-09-24T15:08:40.229Z,27.10
2022-09-24T15:28:39.949Z,21.30
2022-09-24T15:48:39.661Z,26.80
2022-09-24T16:08:39.393Z,23.80
2022-09-24T16:41:20.709Z,24.30
2022-09-24T17:01:20.463Z,20.40
2022-09-24T17:21:20.141Z,24.30
2022-09-24T17:41:19.925Z,23.50
2022-09-24T18:01:19.725Z,27.70
2022-09-24T18:21:19.313Z,25.40
2022-09-24T18:41:19.087Z,25.40
2022-09-24T19:01:18.870Z,23.60
2022-09-24T19:21:18.460Z,27.20
2022-09-24T19:41:18.228Z,21.30
2022-09-24T20:01:18.105Z,8.90
2022-09-24T20:21:17.649Z,5.30
2022-09-24T20:41:17.476Z,8.30
2022-09-24T21:01:17.165Z,9.00
2022-09-24T21:21:16.809Z,9.40
2022-09-24T21:41:16.539Z,9.60
2022-09-24T22:01:16.311Z,14.90
2022-09-24T22:21:15.987Z,12.60
2022-09-24T22:41:15.716Z,9.20
2022-09-24T23:01:15.534Z,10.70
2022-09-24T23:21:15.174Z,13.50
2022-09-24T23:41:14.911Z,11.20
